createdAt,value
2017-07-09T00:00:38.863Z,84.64
2017-07-09T00:01:38.843Z,84.26
2017-07-09T00:02:38.826Z,84.55
2017-07-09T00:03:38.807Z,83.78
2017-07-09T00:04:38.790Z,84.55
2017-07-09T00:05:38.772Z,84.45
2017-07-09T00:06:38.754Z,83.87
2017-07-09T00:07:38.427Z,83.78
2017-07-09T00:08:38.713Z,83.78
2017-07-09T00:09:38.694Z,83.87
2017-07-09T00:10:38.674Z,84.07
2017-07-09T00:11:38.658Z,83.78
2017-07-09T00:12:38.687Z,83.97
2017-07-09T00:13:38.621Z,83.97
2017-07-09T00:14:38.604Z,83.69
2017-07-09T00:15:38.580Z,84.45
2017-07-09T00:16:38.561Z,84.94
2017-07-09T00:17:38.556Z,84.84
2017-07-09T00:18:38.525Z,84.64
2017-07-09T00:19:38.201Z,84.84
2017-07-09T00:20:38.488Z,85.03
2017-07-09T00:21:38.470Z,84.84
2017-07-09T00:22:38.144Z,85.28
2017-07-09T00:23:38.433Z,85.18
2017-07-09T00:24:38.107Z,84.99
2017-07-09T00:25:38.394Z,85.71
2017-07-09T00:26:38.373Z,85.28
2017-07-09T00:27:38.050Z,85.28
2017-07-09T00:28:38.335Z,85.28
2017-07-09T00:29:38.318Z,85.28
2017-07-09T00:30:38.297Z,85.32
2017-07-09T00:31:38.280Z,85.18
2017-07-09T00:32:38.261Z,86.14
2017-07-09T00:33:38.241Z,86.05
2017-07-09T00:34:38.223Z,85.75
2017-07-09T00:35:38.205Z,85.85
2017-07-09T00:36:38.186Z,85.85
2017-07-09T00:37:37.862Z,85.95
2017-07-09T00:38:38.148Z,85.66
2017-07-09T00:39:38.128Z,85.95
2017-07-09T00:40:38.108Z,85.95
2017-07-09T00:41:37.785Z,85.85
2017-07-09T00:42:38.069Z,85.75
2017-07-09T00:43:38.052Z,85.66
2017-07-09T00:44:38.030Z,86.33
2017-07-09T00:45:38.012Z,86.05
2017-07-09T00:46:37.993Z,85.95
2017-07-09T00:47:37.976Z,86.33
2017-07-09T00:48:37.956Z,86.24
2017-07-09T00:49:37.631Z,86.33
2017-07-09T00:50:37.920Z,86.33
2017-07-09T00:51:37.898Z,86.43
2017-07-09T00:52:37.574Z,86.91
2017-07-09T00:53:37.860Z,86.81
2017-07-09T00:54:37.898Z,86.52
2017-07-09T00:55:37.821Z,86.43
2017-07-09T00:56:37.860Z,86.33
2017-07-09T00:57:37.790Z,86.33
2017-07-09T00:58:37.765Z,86.81
2017-07-09T00:59:37.743Z,86.43
2017-07-09T01:00:37.722Z,86.91
2017-07-09T01:01:37.709Z,86.77
2017-07-09T01:02:37.686Z,87.1
2017-07-09T01:03:37.667Z,87.19
2017-07-09T01:04:37.649Z,87.25
2017-07-09T01:05:37.323Z,87.35
2017-07-09T01:06:37.613Z,87.05
2017-07-09T01:07:37.591Z,86.87
2017-07-09T01:08:37.571Z,87.54
2017-07-09T01:09:37.553Z,87.44
2017-07-09T01:10:37.534Z,87.54
2017-07-09T01:11:37.514Z,87.35
2017-07-09T01:12:37.491Z,87.54
2017-07-09T01:13:37.168Z,87.54
2017-07-09T01:14:37.452Z,87.15
2017-07-09T01:15:37.128Z,87.35
2017-07-09T01:16:37.416Z,86.96
2017-07-09T01:17:37.395Z,87.15
2017-07-09T01:18:37.377Z,87.39
2017-07-09T01:19:37.353Z,86.77
2017-07-09T01:20:37.336Z,86.58
2017-07-09T01:21:37.323Z,86.77
2017-07-09T01:22:36.992Z,86.77
2017-07-09T01:23:36.973Z,86.68
2017-07-09T01:24:37.259Z,86.68
2017-07-09T01:25:37.240Z,86.38
2017-07-09T01:26:37.220Z,86.29
2017-07-09T01:27:37.200Z,86.29
2017-07-09T01:28:36.875Z,86.29
2017-07-09T01:29:36.857Z,86.48
2017-07-09T01:30:36.840Z,86.68
2017-07-09T01:31:37.127Z,86.87
2017-07-09T01:32:37.102Z,86.48
2017-07-09T01:33:37.083Z,86.29
2017-07-09T01:34:36.810Z,86.29
2017-07-09T01:35:37.048Z,86.38
2017-07-09T01:36:37.024Z,86.19
2017-07-09T01:37:37.005Z,85.67
2017-07-09T01:38:36.987Z,85.91
2017-07-09T01:39:36.967Z,86.25
2017-07-09T01:40:36.948Z,85.77
2017-07-09T01:41:36.929Z,86.25
2017-07-09T01:42:36.907Z,85.86
2017-07-09T01:43:36.887Z,86.15
2017-07-09T01:44:36.867Z,86.25
2017-07-09T01:45:36.849Z,86.25
2017-07-09T01:46:36.829Z,86.25
2017-07-09T01:47:36.806Z,86.25
2017-07-09T01:48:36.788Z,86.15
2017-07-09T01:49:36.770Z,86.25
2017-07-09T01:50:36.751Z,86.05
2017-07-09T01:51:36.734Z,85.96
2017-07-09T01:52:36.710Z,86.34
2017-07-09T01:53:36.386Z,86.34
2017-07-09T01:54:36.671Z,86.05
2017-07-09T01:55:36.648Z,86.34
2017-07-09T01:56:36.628Z,86.34
2017-07-09T01:57:36.610Z,86.15
2017-07-09T01:58:36.594Z,86.05
2017-07-09T01:59:36.572Z,86.05
2017-07-09T02:00:36.551Z,86.05
2017-07-09T02:01:36.530Z,86.25
2017-07-09T02:02:36.513Z,86.15
2017-07-09T02:03:36.186Z,86.34
2017-07-09T02:04:36.473Z,85.67
2017-07-09T02:05:36.453Z,86.05
2017-07-09T02:06:36.430Z,85.67
2017-07-09T02:07:36.411Z,85.86
2017-07-09T02:08:36.392Z,85.86
2017-07-09T02:09:36.380Z,85.96
2017-07-09T02:10:36.351Z,86.34
2017-07-09T02:11:36.345Z,86.34
2017-07-09T02:12:36.007Z,86.15
2017-07-09T02:13:35.987Z,86.15
2017-07-09T02:14:36.271Z,86.25
2017-07-09T02:15:35.949Z,86.15
2017-07-09T02:16:35.926Z,86.05
2017-07-09T02:17:36.215Z,86.44
2017-07-09T02:18:36.199Z,86.44
2017-07-09T02:19:35.866Z,86.54
2017-07-09T02:20:36.153Z,86.54
2017-07-09T02:21:36.131Z,86.25
2017-07-09T02:22:35.807Z,86.44
2017-07-09T02:23:36.093Z,86.34
2017-07-09T02:24:35.767Z,86.25
2017-07-09T02:25:36.054Z,86.15
2017-07-09T02:26:35.728Z,86.34
2017-07-09T02:27:35.706Z,86.34
2017-07-09T02:28:35.687Z,86.34
2017-07-09T02:29:35.970Z,86.25
2017-07-09T02:30:35.652Z,86.25
2017-07-09T02:31:35.930Z,86.25
2017-07-09T02:32:35.608Z,86.25
2017-07-09T02:33:35.891Z,86.25
2017-07-09T02:34:35.567Z,86.3
2017-07-09T02:35:35.850Z,86.78
2017-07-09T02:36:35.528Z,86.78
2017-07-09T02:37:35.813Z,86.58
2017-07-09T02:38:35.489Z,86.4
2017-07-09T02:39:35.772Z,86.3
2017-07-09T02:40:35.450Z,86.58
2017-07-09T02:41:35.732Z,86.3
2017-07-09T02:42:35.714Z,86.68
2017-07-09T02:43:35.691Z,86.68
2017-07-09T02:44:35.671Z,86.68
2017-07-09T02:45:35.348Z,86.78
2017-07-09T02:46:35.328Z,86.58
2017-07-09T02:47:35.612Z,86.58
2017-07-09T02:48:35.290Z,86.68
2017-07-09T02:49:35.269Z,86.11
2017-07-09T02:50:35.551Z,86.3
2017-07-09T02:51:35.229Z,86.11
2017-07-09T02:52:35.517Z,86.58
2017-07-09T02:53:35.492Z,86.4
2017-07-09T02:54:35.474Z,86.4
2017-07-09T02:55:35.456Z,86.58
2017-07-09T02:56:35.433Z,86.21
2017-07-09T02:57:35.415Z,86.11
2017-07-09T02:58:35.391Z,85.72
2017-07-09T02:59:35.374Z,86.21
2017-07-09T03:00:35.357Z,85.63
2017-07-09T03:01:35.333Z,85.82
2017-07-09T03:02:35.316Z,85.44
2017-07-09T03:03:35.297Z,85.72
2017-07-09T03:04:35.281Z,85.92
2017-07-09T03:05:35.253Z,86.01
2017-07-09T03:06:35.234Z,85.82
2017-07-09T03:07:35.215Z,85.34
2017-07-09T03:08:35.258Z,85.38
2017-07-09T03:09:35.174Z,85.15
2017-07-09T03:10:35.153Z,84.95
2017-07-09T03:11:35.133Z,85.05
2017-07-09T03:12:34.808Z,85.34
2017-07-09T03:13:35.094Z,85.05
2017-07-09T03:14:35.074Z,85.34
2017-07-09T03:15:35.056Z,85.15
2017-07-09T03:16:35.035Z,85.05
2017-07-09T03:17:35.019Z,85.25
2017-07-09T03:18:34.996Z,85.05
2017-07-09T03:19:34.975Z,85.05
2017-07-09T03:20:34.956Z,85.05
2017-07-09T03:21:34.937Z,85.15
2017-07-09T03:22:34.609Z,85.05
2017-07-09T03:23:34.893Z,84.86
2017-07-09T03:24:34.876Z,85.15
2017-07-09T03:25:34.550Z,85.15
2017-07-09T03:26:34.834Z,85.05
2017-07-09T03:27:34.509Z,85.25
2017-07-09T03:28:34.853Z,85.34
2017-07-09T03:29:34.774Z,85.34
2017-07-09T03:30:34.449Z,84.95
2017-07-09T03:31:34.735Z,85.15
2017-07-09T03:32:34.716Z,85.44
2017-07-09T03:33:34.697Z,85.15
2017-07-09T03:34:34.677Z,85.34
2017-07-09T03:35:34.657Z,85.15
2017-07-09T03:36:34.636Z,85.25
2017-07-09T03:37:34.615Z,85.44
2017-07-09T03:38:34.598Z,85.05
2017-07-09T03:39:34.576Z,85.05
2017-07-09T03:40:34.556Z,85.05
2017-07-09T03:41:34.539Z,85.05
2017-07-09T03:42:34.517Z,84.86
2017-07-09T03:43:34.496Z,85.15
2017-07-09T03:44:34.479Z,85.25
2017-07-09T03:45:34.457Z,84.95
2017-07-09T03:46:34.438Z,85.15
2017-07-09T03:47:34.420Z,84.95
2017-07-09T03:48:34.397Z,84.95
2017-07-09T03:49:34.379Z,85.15
2017-07-09T03:50:34.366Z,85.25
2017-07-09T03:51:34.335Z,84.86
2017-07-09T03:52:34.320Z,85.34
2017-07-09T03:53:34.304Z,85.15
2017-07-09T03:54:34.276Z,85.34
2017-07-09T03:55:34.258Z,85.53
2017-07-09T03:56:34.240Z,85.53
2017-07-09T03:57:34.219Z,85.15
2017-07-09T03:58:34.196Z,85.72
2017-07-09T03:59:34.180Z,85.53
2017-07-09T04:00:34.157Z,85.34
2017-07-09T04:01:34.138Z,85.44
2017-07-09T04:02:34.116Z,85.44
2017-07-09T04:03:34.097Z,85.39
2017-07-09T04:04:34.080Z,85.3
2017-07-09T04:05:34.058Z,85.34
2017-07-09T04:06:34.039Z,85.11
2017-07-09T04:07:34.020Z,85.34
2017-07-09T04:08:33.997Z,85.44
2017-07-09T04:09:33.976Z,85.15
2017-07-09T04:10:33.954Z,85.25
2017-07-09T04:11:33.995Z,85.53
2017-07-09T04:12:33.918Z,85.3
2017-07-09T04:13:33.895Z,85.53
2017-07-09T04:14:33.878Z,85.58
2017-07-09T04:15:33.856Z,85.44
2017-07-09T04:16:33.836Z,85.21
2017-07-09T04:17:33.815Z,85.53
2017-07-09T04:18:33.798Z,85.63
2017-07-09T04:19:33.470Z,85.3
2017-07-09T04:20:33.761Z,85.34
2017-07-09T04:21:33.733Z,85.49
2017-07-09T04:22:33.410Z,85.01
2017-07-09T04:23:33.696Z,84.95
2017-07-09T04:24:33.372Z,84.95
2017-07-09T04:25:33.657Z,85.3
2017-07-09T04:26:33.634Z,84.67
2017-07-09T04:27:33.310Z,85.05
2017-07-09T04:28:33.595Z,85.15
2017-07-09T04:29:33.577Z,84.77
2017-07-09T04:30:33.557Z,84.86
2017-07-09T04:31:33.534Z,84.77
2017-07-09T04:32:33.515Z,84.77
2017-07-09T04:33:33.495Z,84.58
2017-07-09T04:34:33.476Z,84.67
2017-07-09T04:35:33.454Z,84.48
2017-07-09T04:36:33.436Z,84.48
2017-07-09T04:37:33.418Z,84.67
2017-07-09T04:38:33.399Z,84.28
2017-07-09T04:39:33.377Z,84.28
2017-07-09T04:40:33.360Z,84.58
2017-07-09T04:41:33.342Z,84.58
2017-07-09T04:42:33.323Z,84.19
2017-07-09T04:43:33.301Z,83.61
2017-07-09T04:44:33.280Z,83.52
2017-07-09T04:45:33.260Z,83.71
2017-07-09T04:46:33.240Z,83.91
2017-07-09T04:47:33.224Z,84
2017-07-09T04:48:32.899Z,84
2017-07-09T04:49:33.183Z,83.81
2017-07-09T04:50:33.164Z,83.81
2017-07-09T04:51:33.145Z,84.14
2017-07-09T04:52:33.125Z,83.52
2017-07-09T04:53:33.105Z,83.61
2017-07-09T04:54:32.781Z,83.42
2017-07-09T04:55:33.071Z,83.61
2017-07-09T04:56:33.050Z,83.56
2017-07-09T04:57:33.030Z,83.75
2017-07-09T04:58:33.012Z,83.47
2017-07-09T04:59:32.994Z,83.75
2017-07-09T05:00:32.974Z,83.18
2017-07-09T05:01:32.964Z,82.98
2017-07-09T05:02:32.629Z,83.08
2017-07-09T05:03:32.612Z,82.7
2017-07-09T05:04:32.896Z,82.79
2017-07-09T05:05:32.877Z,82.89
2017-07-09T05:06:32.859Z,82.41
2017-07-09T05:07:32.857Z,82.03
2017-07-09T05:08:32.821Z,82.21
2017-07-09T05:09:32.805Z,82.21
2017-07-09T05:10:32.796Z,82.03
2017-07-09T05:11:32.766Z,81.93
2017-07-09T05:12:32.753Z,82.21
2017-07-09T05:13:32.732Z,81.93
2017-07-09T05:14:32.712Z,81.93
2017-07-09T05:15:32.689Z,81.93
2017-07-09T05:16:32.676Z,81.84
2017-07-09T05:17:32.349Z,81.93
2017-07-09T05:18:32.634Z,82.12
2017-07-09T05:19:32.620Z,82.12
2017-07-09T05:20:32.594Z,82.12
2017-07-09T05:21:32.273Z,82.12
2017-07-09T05:22:32.252Z,82.12
2017-07-09T05:23:32.537Z,82.21
2017-07-09T05:24:32.522Z,82.12
2017-07-09T05:25:32.502Z,82.03
2017-07-09T05:26:32.542Z,82.31
2017-07-09T05:27:32.465Z,82.21
2017-07-09T05:28:32.446Z,82.21
2017-07-09T05:29:32.444Z,82.31
2017-07-09T05:30:32.407Z,81.84
2017-07-09T05:31:32.389Z,81.49
2017-07-09T05:32:32.374Z,81.49
2017-07-09T05:33:32.351Z,81.68
2017-07-09T05:34:32.332Z,81.45
2017-07-09T05:35:32.315Z,81.59
2017-07-09T05:36:32.298Z,81.49
2017-07-09T05:37:32.277Z,81.49
2017-07-09T05:38:32.261Z,81.49
2017-07-09T05:39:32.241Z,81.68
2017-07-09T05:40:32.274Z,81.45
2017-07-09T05:41:32.201Z,81.45
2017-07-09T05:42:32.183Z,81.54
2017-07-09T05:43:32.165Z,81.68
2017-07-09T05:44:32.148Z,81.49
2017-07-09T05:45:32.132Z,81.68
2017-07-09T05:46:32.113Z,81.59
2017-07-09T05:47:32.094Z,81.3
2017-07-09T05:48:32.076Z,81.59
2017-07-09T05:49:32.108Z,81.01
2017-07-09T05:50:32.037Z,81.01
2017-07-09T05:51:32.018Z,80.82
2017-07-09T05:52:32.000Z,80.34
2017-07-09T05:53:31.982Z,81.3
2017-07-09T05:54:31.965Z,80.82
2017-07-09T05:55:31.946Z,80.63
2017-07-09T05:56:31.930Z,80.34
2017-07-09T05:57:31.938Z,80.47
2017-07-09T05:58:31.904Z,80.57
2017-07-09T05:59:31.577Z,80.19
2017-07-09T06:00:31.859Z,79.8
2017-07-09T06:01:31.841Z,79.61
2017-07-09T06:02:31.520Z,79.42
2017-07-09T06:03:31.807Z,79.03
2017-07-09T06:04:31.484Z,79.61
2017-07-09T06:05:31.774Z,79.99
2017-07-09T06:06:31.754Z,79.13
2017-07-09T06:07:31.433Z,79.32
2017-07-09T06:08:31.417Z,78.98
2017-07-09T06:09:31.711Z,79.07
2017-07-09T06:10:31.693Z,78.69
2017-07-09T06:11:31.927Z,78.69
2017-07-09T06:12:31.657Z,78.88
2017-07-09T06:13:31.639Z,79.27
2017-07-09T06:14:31.619Z,78.78
2017-07-09T06:15:31.825Z,78.69
2017-07-09T06:16:31.594Z,78.59
2017-07-09T06:17:31.573Z,78.5
2017-07-09T06:18:31.555Z,78.4
2017-07-09T06:19:31.536Z,78.4
2017-07-09T06:20:31.522Z,78.59
2017-07-09T06:21:31.513Z,78.59
2017-07-09T06:22:31.182Z,78.21
2017-07-09T06:23:31.470Z,77.92
2017-07-09T06:24:31.457Z,77.83
2017-07-09T06:25:31.133Z,77.53
2017-07-09T06:26:31.421Z,77.29
2017-07-09T06:27:31.405Z,77.38
2017-07-09T06:28:31.083Z,76.71
2017-07-09T06:29:31.374Z,76.81
2017-07-09T06:30:31.356Z,76.61
2017-07-09T06:31:31.347Z,76.61
2017-07-09T06:32:31.325Z,76.61
2017-07-09T06:33:31.308Z,76.9
2017-07-09T06:34:31.295Z,76.71
2017-07-09T06:35:31.275Z,76.9
2017-07-09T06:36:31.263Z,76.86
2017-07-09T06:37:31.251Z,76.81
2017-07-09T06:38:31.228Z,76.61
2017-07-09T06:39:31.211Z,76.9
2017-07-09T06:40:31.198Z,76.9
2017-07-09T06:41:31.179Z,76.71
2017-07-09T06:42:31.166Z,76.81
2017-07-09T06:43:31.146Z,76.52
2017-07-09T06:44:31.129Z,76.32
2017-07-09T06:45:31.113Z,76.42
2017-07-09T06:46:31.100Z,76.42
2017-07-09T06:47:31.083Z,75.65
2017-07-09T06:48:31.067Z,76.26
2017-07-09T06:49:31.051Z,76.23
2017-07-09T06:50:31.034Z,75.79
2017-07-09T06:51:31.019Z,75.59
2017-07-09T06:52:31.001Z,75.4
2017-07-09T06:53:30.989Z,75.02
2017-07-09T06:54:30.667Z,74.67
2017-07-09T06:55:30.957Z,74.19
2017-07-09T06:56:30.942Z,74.09
2017-07-09T06:57:30.928Z,73.9
2017-07-09T06:58:30.908Z,73.99
2017-07-09T06:59:30.896Z,73.42
2017-07-09T07:00:30.891Z,73.51
2017-07-09T07:01:30.862Z,73.61
2017-07-09T07:02:30.850Z,73.13
2017-07-09T07:03:30.833Z,73.22
2017-07-09T07:04:30.817Z,73.13
2017-07-09T07:05:30.805Z,73.42
2017-07-09T07:06:30.788Z,73.32
2017-07-09T07:07:30.468Z,73.26
2017-07-09T07:08:30.452Z,72.59
2017-07-09T07:09:30.438Z,72.59
2017-07-09T07:10:30.727Z,72.78
2017-07-09T07:11:30.714Z,72.78
2017-07-09T07:12:30.443Z,72.01
2017-07-09T07:13:30.686Z,72.11
2017-07-09T07:14:30.676Z,72.01
2017-07-09T07:15:30.400Z,71.24
2017-07-09T07:16:30.644Z,71.66
2017-07-09T07:17:30.625Z,71.18
2017-07-09T07:18:30.616Z,71.08
2017-07-09T07:19:30.597Z,70.89
2017-07-09T07:20:30.582Z,70.44
2017-07-09T07:21:30.572Z,70.06
2017-07-09T07:22:30.252Z,69.96
2017-07-09T07:23:30.236Z,69.96
2017-07-09T07:24:30.526Z,69.77
2017-07-09T07:25:30.517Z,69.29
2017-07-09T07:26:30.497Z,69.48
2017-07-09T07:27:30.485Z,68.99
2017-07-09T07:28:30.167Z,69.19
2017-07-09T07:29:30.155Z,69.19
2017-07-09T07:30:30.443Z,69.09
2017-07-09T07:31:30.125Z,69.03
2017-07-09T07:32:30.113Z,68.99
2017-07-09T07:33:30.405Z,69.09
2017-07-09T07:34:30.395Z,68.61
2017-07-09T07:35:30.381Z,68.65
2017-07-09T07:36:30.365Z,68.84
2017-07-09T07:37:30.046Z,68.74
2017-07-09T07:38:30.337Z,68.74
2017-07-09T07:39:30.373Z,68.84
2017-07-09T07:40:30.309Z,68.55
2017-07-09T07:41:29.990Z,68.55
2017-07-09T07:42:30.284Z,68.26
2017-07-09T07:43:29.965Z,68.26
2017-07-09T07:44:30.255Z,68.55
2017-07-09T07:45:29.939Z,68.55
2017-07-09T07:46:30.230Z,68.35
2017-07-09T07:47:29.912Z,67.4
2017-07-09T07:48:30.203Z,67.78
2017-07-09T07:49:30.249Z,67.78
2017-07-09T07:50:29.874Z,67.52
2017-07-09T07:51:30.166Z,66.75
2017-07-09T07:52:29.847Z,67.14
2017-07-09T07:53:29.835Z,66.85
2017-07-09T07:54:30.128Z,66.85
2017-07-09T07:55:29.811Z,66.56
2017-07-09T07:56:29.798Z,66.56
2017-07-09T07:57:30.089Z,66.2
2017-07-09T07:58:29.774Z,66.11
2017-07-09T07:59:29.760Z,66.4
2017-07-09T08:00:30.057Z,66.11
2017-07-09T08:01:30.043Z,66.01
2017-07-09T08:02:30.030Z,66.2
2017-07-09T08:03:30.015Z,65.53
2017-07-09T08:04:30.005Z,65.34
2017-07-09T08:05:29.990Z,64.95
2017-07-09T08:06:29.676Z,65.14
2017-07-09T08:07:29.967Z,65.27
2017-07-09T08:08:29.955Z,65.14
2017-07-09T08:09:29.945Z,65.17
2017-07-09T08:10:29.932Z,65.14
2017-07-09T08:11:29.918Z,65.05
2017-07-09T08:12:29.907Z,65.05
2017-07-09T08:13:29.894Z,65.08
2017-07-09T08:14:29.884Z,65.05
2017-07-09T08:15:29.567Z,65.56
2017-07-09T08:16:29.859Z,65.47
2017-07-09T08:17:29.850Z,65.27
2017-07-09T08:18:29.839Z,65.24
2017-07-09T08:19:29.829Z,65.82
2017-07-09T08:20:29.814Z,65.63
2017-07-09T08:21:29.803Z,65.53
2017-07-09T08:22:29.486Z,65.43
2017-07-09T08:23:29.778Z,65.53
2017-07-09T08:24:29.464Z,65.17
2017-07-09T08:25:29.452Z,65.27
2017-07-09T08:26:29.743Z,65.37
2017-07-09T08:27:29.732Z,64.31
2017-07-09T08:28:29.418Z,64.53
2017-07-09T08:29:29.407Z,64.43
2017-07-09T08:30:29.546Z,63.95
2017-07-09T08:31:29.773Z,63.66
2017-07-09T08:32:29.373Z,63.76
2017-07-09T08:33:29.362Z,63.76
2017-07-09T08:34:29.656Z,63.4
2017-07-09T08:35:29.643Z,62.73
2017-07-09T08:36:29.634Z,62.82
2017-07-09T08:37:29.318Z,62.44
2017-07-09T08:38:29.309Z,62.73
2017-07-09T08:39:29.299Z,61.95
2017-07-09T08:40:29.290Z,61.69
2017-07-09T08:41:29.692Z,61.79
2017-07-09T08:42:29.573Z,61.4
2017-07-09T08:43:29.865Z,60.95
2017-07-09T08:44:29.789Z,60.27
2017-07-09T08:45:29.239Z,60.01
2017-07-09T08:46:29.532Z,59.23
2017-07-09T08:47:29.525Z,59.82
2017-07-09T08:48:29.513Z,60.01
2017-07-09T08:49:29.507Z,60.08
2017-07-09T08:50:29.496Z,59.91
2017-07-09T08:51:29.486Z,60.08
2017-07-09T08:52:29.174Z,59.72
2017-07-09T08:53:29.468Z,59.33
2017-07-09T08:54:29.462Z,58.85
2017-07-09T08:55:29.450Z,59.05
2017-07-09T08:56:29.139Z,58.39
2017-07-09T08:57:29.129Z,57.91
2017-07-09T08:58:29.423Z,57.91
2017-07-09T08:59:29.415Z,58.2
2017-07-09T09:00:29.405Z,57.14
2017-07-09T09:01:29.093Z,57.17
2017-07-09T09:02:29.388Z,56.59
2017-07-09T09:03:29.385Z,55.81
2017-07-09T09:04:29.069Z,55.54
2017-07-09T09:05:29.062Z,54.41
2017-07-09T09:06:29.361Z,52.88
2017-07-09T09:07:29.349Z,51.55
2017-07-09T09:08:29.343Z,50.92
2017-07-09T09:09:29.032Z,49.78
2017-07-09T09:10:29.333Z,49.51
2017-07-09T09:11:29.324Z,49.22
2017-07-09T09:12:29.016Z,49.41
2017-07-09T09:13:29.317Z,49.05
2017-07-09T09:14:29.309Z,49.05
2017-07-09T09:15:29.306Z,49.51
2017-07-09T09:16:29.297Z,50.36
2017-07-09T09:17:29.291Z,51.11
2017-07-09T09:18:28.984Z,51.65
2017-07-09T09:19:28.980Z,51.91
2017-07-09T09:20:29.275Z,52.3
2017-07-09T09:21:29.268Z,52.11
2017-07-09T09:22:28.960Z,52.59
2017-07-09T09:23:29.255Z,52.78
2017-07-09T09:24:29.251Z,52.76
2017-07-09T09:25:29.244Z,53.05
2017-07-09T09:26:29.244Z,53.34
2017-07-09T09:27:29.227Z,53.51
2017-07-09T09:28:29.324Z,54.58
2017-07-09T09:29:29.216Z,54.26
2017-07-09T09:30:29.205Z,54.64
2017-07-09T09:31:28.896Z,54.26
2017-07-09T09:32:29.192Z,54.55
2017-07-09T09:33:29.184Z,54.55
2017-07-09T09:34:28.871Z,53.51
2017-07-09T09:35:29.173Z,51.98
2017-07-09T09:36:28.857Z,51.53
2017-07-09T09:37:28.850Z,51.16
2017-07-09T09:38:28.843Z,51.06
2017-07-09T09:39:29.141Z,51.45
2017-07-09T09:40:29.130Z,51.62
2017-07-09T09:41:29.124Z,51.91
2017-07-09T09:42:29.118Z,52.78
2017-07-09T09:43:29.110Z,53.34
2017-07-09T09:44:28.800Z,53.99
2017-07-09T09:45:29.101Z,54.58
2017-07-09T09:46:28.784Z,54.35
2017-07-09T09:47:29.079Z,55.2
2017-07-09T09:48:29.073Z,56.16
2017-07-09T09:49:29.063Z,56.82
2017-07-09T09:50:28.751Z,56.52
2017-07-09T09:51:28.742Z,57.01
2017-07-09T09:52:29.036Z,57.01
2017-07-09T09:53:29.029Z,57.37
2017-07-09T09:54:29.023Z,58.24
2017-07-09T09:55:29.010Z,58.04
2017-07-09T09:56:28.695Z,57.95
2017-07-09T09:57:28.990Z,58.04
2017-07-09T09:58:28.674Z,58.04
2017-07-09T09:59:28.967Z,58.53
2017-07-09T10:00:28.958Z,58.4
2017-07-09T10:01:28.945Z,58.89
2017-07-09T10:02:28.632Z,58.7
2017-07-09T10:03:28.923Z,58.7
2017-07-09T10:04:28.919Z,58.8
2017-07-09T10:05:28.908Z,58.89
2017-07-09T10:06:28.892Z,59.28
2017-07-09T10:07:28.576Z,59.08
2017-07-09T10:08:28.869Z,59.38
2017-07-09T10:09:28.554Z,59.44
2017-07-09T10:10:28.850Z,59.95
2017-07-09T10:11:28.833Z,60.41
2017-07-09T10:12:28.821Z,60.21
2017-07-09T10:13:28.813Z,60.31
2017-07-09T10:14:28.494Z,60.11
2017-07-09T10:15:28.789Z,60.21
2017-07-09T10:16:28.471Z,60.69
2017-07-09T10:17:28.461Z,60.5
2017-07-09T10:18:28.752Z,60.69
2017-07-09T10:19:28.435Z,60.6
2017-07-09T10:20:28.727Z,60.5
2017-07-09T10:21:28.719Z,60.41
2017-07-09T10:22:28.398Z,60.5
2017-07-09T10:23:28.386Z,60.79
2017-07-09T10:24:28.378Z,60.99
2017-07-09T10:25:28.670Z,60.57
2017-07-09T10:26:28.350Z,60.89
2017-07-09T10:27:28.339Z,60.89
2017-07-09T10:28:28.326Z,60.99
2017-07-09T10:29:28.313Z,60.31
2017-07-09T10:30:28.302Z,59.53
2017-07-09T10:31:28.591Z,58.98
2017-07-09T10:32:28.586Z,58.14
2017-07-09T10:33:28.572Z,56.52
2017-07-09T10:34:28.560Z,56.07
2017-07-09T10:35:28.246Z,55.49
2017-07-09T10:36:28.535Z,55.58
2017-07-09T10:37:28.526Z,55.22
2017-07-09T10:38:28.518Z,54.74
2017-07-09T10:39:28.507Z,53.7
2017-07-09T10:40:28.195Z,52.76
2017-07-09T10:41:28.487Z,51.91
2017-07-09T10:42:28.173Z,51.14
2017-07-09T10:43:28.469Z,50.96
2017-07-09T10:44:28.607Z,49.54
2017-07-09T10:45:28.147Z,49.37
2017-07-09T10:46:28.441Z,49.37
2017-07-09T10:47:28.434Z,49.07
2017-07-09T10:48:28.430Z,49.27
2017-07-09T10:49:28.117Z,49.66
2017-07-09T10:50:28.412Z,49.54
2017-07-09T10:51:28.099Z,50.48
2017-07-09T10:52:28.392Z,50.48
2017-07-09T10:53:28.085Z,51.06
2017-07-09T10:54:28.074Z,51.04
2017-07-09T10:55:28.369Z,51.43
2017-07-09T10:56:28.057Z,51.62
2017-07-09T10:57:28.354Z,51.14
2017-07-09T10:58:28.346Z,50.56
2017-07-09T10:59:28.336Z,50.56
2017-07-09T11:00:28.585Z,49.49
2017-07-09T11:01:28.016Z,48.54
2017-07-09T11:02:28.008Z,48.35
2017-07-09T11:03:28.302Z,47.88
2017-07-09T11:04:28.298Z,47.03
2017-07-09T11:05:28.289Z,46.55
2017-07-09T11:06:28.281Z,45.79
2017-07-09T11:07:27.971Z,45.14
2017-07-09T11:08:28.271Z,44.18
2017-07-09T11:09:27.956Z,43.71
2017-07-09T11:10:27.950Z,42.74
2017-07-09T11:11:27.946Z,41.69
2017-07-09T11:12:27.939Z,41.42
2017-07-09T11:13:28.238Z,41.05
2017-07-09T11:14:28.564Z,40.66
2017-07-09T11:15:27.924Z,40.09
2017-07-09T11:16:27.922Z,39.9
2017-07-09T11:17:27.914Z,39.41
2017-07-09T11:18:28.213Z,38.75
2017-07-09T11:19:28.208Z,38.28
2017-07-09T11:20:28.204Z,38.2
2017-07-09T11:21:28.202Z,38.1
2017-07-09T11:22:28.251Z,38.28
2017-07-09T11:23:27.890Z,38.28
2017-07-09T11:24:28.194Z,38.38
2017-07-09T11:25:27.880Z,38.35
2017-07-09T11:26:28.180Z,38.26
2017-07-09T11:27:27.876Z,37.57
2017-07-09T11:28:28.176Z,37.5
2017-07-09T11:29:28.170Z,37.48
2017-07-09T11:30:28.167Z,37.96
2017-07-09T11:31:28.162Z,38.51
2017-07-09T11:32:28.158Z,38.89
2017-07-09T11:33:27.851Z,39.26
2017-07-09T11:34:28.155Z,39.92
2017-07-09T11:35:27.844Z,40.41
2017-07-09T11:36:27.841Z,41.06
2017-07-09T11:37:27.837Z,41.16
2017-07-09T11:38:28.133Z,41.24
2017-07-09T11:39:28.131Z,41.24
2017-07-09T11:40:28.124Z,41.14
2017-07-09T11:41:28.121Z,40.56
2017-07-09T11:42:28.117Z,41.24
2017-07-09T11:43:28.110Z,40.27
2017-07-09T11:44:28.106Z,39.22
2017-07-09T11:45:27.797Z,38.85
2017-07-09T11:46:27.793Z,37.7
2017-07-09T11:47:28.096Z,37.6
2017-07-09T11:48:28.090Z,37.7
2017-07-09T11:49:28.082Z,37.43
2017-07-09T11:50:28.080Z,36.94
2017-07-09T11:51:28.076Z,36.57
2017-07-09T11:52:28.070Z,35.61
2017-07-09T11:53:27.762Z,35.61
2017-07-09T11:54:28.065Z,36.02
2017-07-09T11:55:28.061Z,36.19
2017-07-09T11:56:28.060Z,36.58
2017-07-09T11:57:28.055Z,36.96
2017-07-09T11:58:28.049Z,37.23
2017-07-09T11:59:28.045Z,37.04
2017-07-09T12:00:28.045Z,37.13
2017-07-09T12:01:27.733Z,37.5
2017-07-09T12:02:27.730Z,37.99
2017-07-09T12:03:28.028Z,38.46
2017-07-09T12:04:27.720Z,38.75
2017-07-09T12:05:27.716Z,38.46
2017-07-09T12:06:28.016Z,38.75
2017-07-09T12:07:27.707Z,38.93
2017-07-09T12:08:28.004Z,39.22
2017-07-09T12:09:28.000Z,38.83
2017-07-09T12:10:27.995Z,38.34
2017-07-09T12:11:27.989Z,38.07
2017-07-09T12:12:27.681Z,37.77
2017-07-09T12:13:27.979Z,37.6
2017-07-09T12:14:27.976Z,37.5
2017-07-09T12:15:27.976Z,37.31
2017-07-09T12:16:27.967Z,36.45
2017-07-09T12:17:27.654Z,36.65
2017-07-09T12:18:27.651Z,36.84
2017-07-09T12:19:27.643Z,37.43
2017-07-09T12:20:27.948Z,37.62
2017-07-09T12:21:27.939Z,37.52
2017-07-09T12:22:27.827Z,38.2
2017-07-09T12:23:27.929Z,38.48
2017-07-09T12:24:27.621Z,39.06
2017-07-09T12:25:27.919Z,39.62
2017-07-09T12:26:27.914Z,39.7
2017-07-09T12:27:27.909Z,40.39
2017-07-09T12:28:27.909Z,41.05
2017-07-09T12:29:27.900Z,40.85
2017-07-09T12:30:27.893Z,40.95
2017-07-09T12:31:27.581Z,42.21
2017-07-09T12:32:27.879Z,42.29
2017-07-09T12:33:27.873Z,42.39
2017-07-09T12:34:27.866Z,41.49
2017-07-09T12:35:27.865Z,41.22
2017-07-09T12:36:27.550Z,40.95
2017-07-09T12:37:28.000Z,40.17
2017-07-09T12:38:27.992Z,40.17
2017-07-09T12:39:27.837Z,40.95
2017-07-09T12:40:27.832Z,41.24
2017-07-09T12:41:27.827Z,41.34
2017-07-09T12:42:27.821Z,41.61
2017-07-09T12:43:27.509Z,42
2017-07-09T12:44:27.805Z,42.56
2017-07-09T12:45:27.494Z,42.66
2017-07-09T12:46:27.488Z,42.18
2017-07-09T12:47:27.483Z,40.64
2017-07-09T12:48:27.475Z,39.69
2017-07-09T12:49:27.775Z,39.24
2017-07-09T12:50:27.464Z,38.57
2017-07-09T12:51:27.458Z,37.13
2017-07-09T12:52:27.452Z,36.58
2017-07-09T12:53:27.754Z,35.43
2017-07-09T12:54:27.750Z,35.45